Time;durP1;ratioP1;P1;durP2;ratioP2;P2;SDS_P1;SDS_P2;PMS_P1;PMS_P2;Temp;Humidity;BMP_temperature;BMP_pressure;BME280_temperature;BME280_humidity;BME280_pressure;Samples;Min_cycle;Max_cycle;Signal;HPM_P1;HPM_P2
2023/05/09 00:01:20;;;;;;;;;;;16.10;99.90;;;;;;5051243;28;19928;-75
2023/05/09 00:03:47;;;;;;;;;;;15.40;99.90;;;;;;5049189;28;20008;-75
2023/05/09 00:06:14;;;;;;;;;;;15.40;99.90;;;;;;5050870;28;20524;-75
2023/05/09 00:08:41;;;;;;;;;;;15.90;99.90;;;;;;5050478;28;19932;-75
2023/05/09 00:11:07;;;;;;;;;;;17.30;99.90;;;;;;5051550;28;19997;-75
2023/05/09 00:13:36;;;;;;;;;;;15.40;99.90;;;;;;5051203;28;19935;-75
2023/05/09 00:16:04;;;;;;;;;;;15.40;99.90;;;;;;5050658;28;20025;-75
2023/05/09 00:18:32;;;;;;;;;;;15.40;99.90;;;;;;5050744;28;19929;-75
2023/05/09 00:21:01;;;;;;;;;;;15.40;99.90;;;;;;5050581;28;19996;-75
2023/05/09 00:23:28;;;;;;;;;;;15.40;99.90;;;;;;5051608;28;20445;-75
2023/05/09 00:25:55;;;;;;;;;;;15.40;99.90;;;;;;5051172;28;20390;-75
2023/05/09 00:28:21;;;;;;;;;;;15.40;99.90;;;;;;5051321;28;19929;-75
2023/05/09 00:30:50;;;;;;;;;;;15.40;99.90;;;;;;5051093;28;20194;-77
2023/05/09 00:33:16;;;;;;;;;;;15.30;99.90;;;;;;5050777;28;20239;-75
2023/05/09 00:35:43;;;;;;;;;;;15.30;99.90;;;;;;5049369;28;19933;-75
2023/05/09 00:38:10;;;;;;;;;;;15.30;99.90;;;;;;5049258;28;20360;-75
2023/05/09 00:40:36;;;;;;;;;;;15.30;99.90;;;;;;5062446;28;19929;-75
2023/05/09 00:43:03;;;;;;;;;;;15.20;99.90;;;;;;5049032;28;19933;-75
2023/05/09 00:45:30;;;;;;;;;;;15.20;99.90;;;;;;5049706;28;19951;-75
2023/05/09 00:47:58;;;;;;;;;;;15.20;99.90;;;;;;5046387;28;19928;-75
2023/05/09 00:50:25;;;;;;;;;;;15.10;99.90;;;;;;5042025;28;19928;-75
2023/05/09 00:52:52;;;;;;;;;;;15.10;99.90;;;;;;5059208;28;20236;-75
2023/05/09 00:55:19;;;;;;;;;;;15.10;99.90;;;;;;5049777;28;20217;-75
2023/05/09 00:57:46;;;;;;;;;;;15.10;99.90;;;;;;5064795;28;20409;-75
2023/05/09 01:00:13;;;;;;;;;;;15.20;99.90;;;;;;5053355;28;19928;-75
2023/05/09 01:02:40;;;;;;;;;;;15.20;99.90;;;;;;5049111;28;19935;-75
2023/05/09 01:05:08;;;;;;;;;;;15.20;99.90;;;;;;5047388;28;19925;-75
2023/05/09 01:07:38;;;;;;;;;;;15.20;99.90;;;;;;5049110;28;19928;-75
2023/05/09 01:10:08;;;;;;;;;;;15.20;99.90;;;;;;5047266;28;19978;-76
2023/05/09 01:12:37;;;;;;;;;;;15.20;99.90;;;;;;5046251;28;19925;-76
2023/05/09 01:15:06;;;;;;;;;;;15.20;99.90;;;;;;5049002;28;19932;-75
2023/05/09 01:17:38;;;;;;;;;;;15.20;99.90;;;;;;5048342;28;19929;-75
2023/05/09 01:20:10;;;;;;;;;;;15.20;99.90;;;;;;5047782;28;19925;-75
2023/05/09 01:22:39;;;;;;;;;;;15.20;99.90;;;;;;5063646;28;19936;-75
2023/05/09 01:25:19;;;;;;;;;;;15.30;99.90;;;;;;5041690;28;19971;-75
2023/05/09 01:27:50;;;;;;;;;;;15.30;99.90;;;;;;5029054;28;20028;-76
2023/05/09 01:30:19;;;;;;;;;;;15.30;99.90;;;;;;5039130;28;19929;-75
2023/05/09 01:32:49;;;;;;;;;;;15.30;99.90;;;;;;5044932;28;20008;-75
2023/05/09 01:35:16;;;;;;;;;;;15.30;99.90;;;;;;5050082;28;19938;-76
2023/05/09 01:37:45;;;;;;;;;;;15.40;99.90;;;;;;5046092;28;19933;-76
2023/05/09 01:40:13;;;;;;;;;;;15.50;99.90;;;;;;5046800;28;19929;-76
2023/05/09 01:42:42;;;;;;;;;;;15.50;99.90;;;;;;5047005;28;19936;-76
2023/05/09 01:45:10;;;;;;;;;;;15.50;99.90;;;;;;5048216;28;19929;-76
2023/05/09 01:47:39;;;;;;;;;;;15.60;99.90;;;;;;5047440;28;20015;-76
2023/05/09 01:50:07;;;;;;;;;;;15.60;99.90;;;;;;5047013;28;19936;-76
2023/05/09 01:52:34;;;;;;;;;;;15.60;99.90;;;;;;5046653;28;19936;-76
2023/05/09 01:55:02;;;;;;;;;;;15.60;99.90;;;;;;5048014;28;20363;-76
2023/05/09 01:57:30;;;;;;;;;;;15.60;99.90;;;;;;5048541;28;19929;-76
2023/05/09 01:59:57;;;;;;;;;;;15.70;99.90;;;;;;5046082;28;20313;-76
2023/05/09 02:02:25;;;;;;;;;;;16.00;99.90;;;;;;5047127;28;20302;-76
2023/05/09 02:04:54;;;;;;;;;;;15.80;99.90;;;;;;5048347;28;20397;-76
2023/05/09 02:07:21;;;;;;;;;;;15.70;99.90;;;;;;5062954;28;19932;-76
2023/05/09 02:09:52;;;;;;;;;;;15.80;99.90;;;;;;5049783;28;20019;-75
2023/05/09 02:12:19;;;;;;;;;;;15.80;99.90;;;;;;5048375;28;19928;-75
2023/05/09 02:14:46;;;;;;;;;;;15.80;99.90;;;;;;5048325;28;19925;-75
2023/05/09 02:17:15;;;;;;;;;;;15.80;99.90;;;;;;5047686;28;20228;-75
2023/05/09 02:19:42;;;;;;;;;;;15.90;99.90;;;;;;5046664;28;20028;-75
2023/05/09 02:22:11;;;;;;;;;;;15.90;99.90;;;;;;5046202;28;20507;-76
2023/05/09 02:24:38;;;;;;;;;;;15.90;99.90;;;;;;5046967;28;19929;-77
2023/05/09 02:27:06;;;;;;;;;;;15.90;99.90;;;;;;5045606;28;19959;-76
2023/05/09 02:29:38;;;;;;;;;;;15.90;99.90;;;;;;5065696;28;20189;-76
2023/05/09 02:32:08;;;;;;;;;;;15.90;99.90;;;;;;5069112;28;19929;-77
2023/05/09 02:34:36;;;;;;;;;;;15.90;99.90;;;;;;5063276;28;19930;-77
2023/05/09 02:37:04;;;;;;;;;;;15.90;99.90;;;;;;5070417;28;20006;-77
2023/05/09 02:39:32;;;;;;;;;;;15.90;99.90;;;;;;5069667;28;19928;-76
2023/05/09 02:42:05;;;;;;;;;;;15.90;99.90;;;;;;5071546;28;19980;-77
2023/05/09 02:44:32;;;;;;;;;;;15.90;99.90;;;;;;5059348;28;20020;-74
2023/05/09 02:46:59;;;;;;;;;;;15.90;99.90;;;;;;5058863;28;19936;-77
2023/05/09 02:49:26;;;;;;;;;;;16.00;99.90;;;;;;5056380;28;20563;-77
2023/05/09 02:51:53;;;;;;;;;;;16.00;99.90;;;;;;5051044;28;19998;-76
2023/05/09 02:54:20;;;;;;;;;;;16.00;99.90;;;;;;5051510;28;19928;-76
2023/05/09 02:56:48;;;;;;;;;;;16.00;99.90;;;;;;5054804;28;19928;-76
2023/05/09 02:59:16;;;;;;;;;;;16.00;99.90;;;;;;5057251;28;19928;-76
2023/05/09 03:01:42;;;;;;;;;;;16.00;99.90;;;;;;5064028;28;19929;-77
2023/05/09 03:04:10;;;;;;;;;;;16.10;99.90;;;;;;5033503;28;19935;-76
2023/05/09 03:06:37;;;;;;;;;;;16.00;99.90;;;;;;5035577;28;19949;-76
2023/05/09 03:09:04;;;;;;;;;;;16.10;99.90;;;;;;5028938;28;19929;-77
2023/05/09 03:11:31;;;;;;;;;;;16.10;99.90;;;;;;5043963;28;19939;-77
2023/05/09 03:13:59;;;;;;;;;;;16.00;99.90;;;;;;5046987;28;19932;-76
2023/05/09 03:16:27;;;;;;;;;;;16.10;99.90;;;;;;5045857;28;20756;-77
2023/05/09 03:18:53;;;;;;;;;;;16.10;99.90;;;;;;5046510;28;19929;-76
2023/05/09 03:21:20;;;;;;;;;;;17.30;99.90;;;;;;5048024;28;20373;-76
2023/05/09 03:23:47;;;;;;;;;;;16.10;99.90;;;;;;5045582;28;19924;-76
2023/05/09 03:26:14;;;;;;;;;;;16.10;99.90;;;;;;5047073;28;19939;-75
2023/05/09 03:28:41;;;;;;;;;;;16.20;99.90;;;;;;5063241;28;19924;-75
2023/05/09 03:31:09;;;;;;;;;;;16.20;99.90;;;;;;5043979;28;19929;-76
2023/05/09 03:33:35;;;;;;;;;;;16.20;99.90;;;;;;5045324;28;20002;-76
2023/05/09 03:36:02;;;;;;;;;;;16.20;99.90;;;;;;5043947;28;19929;-76
2023/05/09 03:38:29;;;;;;;;;;;16.10;99.90;;;;;;5050461;28;19924;-76
2023/05/09 03:40:56;;;;;;;;;;;16.20;99.90;;;;;;5048020;28;19929;-76
2023/05/09 03:43:23;;;;;;;;;;;16.20;99.90;;;;;;5042123;28;19986;-76
2023/05/09 03:45:49;;;;;;;;;;;16.10;99.90;;;;;;5065146;28;19944;-76
2023/05/09 03:48:17;;;;;;;;;;;16.10;99.90;;;;;;5061235;28;20664;-76
2023/05/09 03:50:49;;;;;;;;;;;16.10;99.90;;;;;;5571039;22;19925;-76
2023/05/09 03:53:16;;;;;;;;;;;18.10;99.90;;;;;;5046153;28;20652;-76
2023/05/09 03:55:45;;;;;;;;;;;16.20;99.90;;;;;;5045057;28;20421;-76
2023/05/09 03:58:14;;;;;;;;;;;14.30;99.90;;;;;;5032473;28;20022;-76
2023/05/09 04:00:42;;;;;;;;;;;16.20;99.90;;;;;;5032597;28;19967;-76
2023/05/09 04:03:15;;;;;;;;;;;16.20;99.90;;;;;;5005658;28;20254;-76
2023/05/09 04:05:47;;;;;;;;;;;16.20;99.90;;;;;;5006226;28;20475;-76
2023/05/09 04:08:23;;;;;;;;;;;15.50;99.90;;;;;;5010593;28;19972;-76
2023/05/09 04:10:51;;;;;;;;;;;16.10;99.90;;;;;;5538768;23;20431;-76
2023/05/09 04:13:18;;;;;;;;;;;16.40;99.90;;;;;;5031167;28;19931;-76
2023/05/09 04:15:45;;;;;;;;;;;16.10;99.90;;;;;;5021454;28;19925;-76
2023/05/09 04:18:12;;;;;;;;;;;16.10;99.90;;;;;;5028144;28;20051;-75
2023/05/09 04:20:39;;;;;;;;;;;16.10;99.90;;;;;;5047570;28;20635;-75
2023/05/09 04:23:08;;;;;;;;;;;16.10;99.90;;;;;;5022486;28;19929;-76
2023/05/09 04:25:36;;;;;;;;;;;16.10;99.90;;;;;;5031857;28;19975;-76
2023/05/09 04:28:02;;;;;;;;;;;16.10;99.90;;;;;;5028587;28;19933;-75
2023/05/09 04:30:29;;;;;;;;;;;16.10;99.90;;;;;;5017163;28;19984;-76
2023/05/09 04:32:57;;;;;;;;;;;16.10;99.90;;;;;;5029225;28;19933;-75
2023/05/09 04:35:25;;;;;;;;;;;16.10;99.90;;;;;;5029737;28;19944;-76
2023/05/09 04:37:53;;;;;;;;;;;16.10;99.90;;;;;;5034710;28;19929;-76
2023/05/09 04:40:21;;;;;;;;;;;16.00;99.90;;;;;;5023876;28;19929;-76
2023/05/09 04:42:56;;;;;;;;;;;16.00;99.90;;;;;;5029113;28;19944;-76
2023/05/09 04:45:26;;;;;;;;;;;16.00;99.90;;;;;;5013056;28;19965;-76
2023/05/09 04:47:53;;;;;;;;;;;16.00;99.90;;;;;;5019158;28;20399;-76
2023/05/09 04:50:20;;;;;;;;;;;16.00;99.90;;;;;;5048470;28;20440;-75
2023/05/09 04:52:46;;;;;;;;;;;15.90;99.90;;;;;;5056672;28;19925;-76
2023/05/09 04:55:13;;;;;;;;;;;16.00;99.90;;;;;;5049980;28;20673;-76
2023/05/09 04:57:45;;;;;;;;;;;16.00;99.90;;;;;;5064511;28;19929;-75
2023/05/09 05:00:13;;;;;;;;;;;16.00;99.90;;;;;;5030730;28;19964;-76
2023/05/09 05:02:41;;;;;;;;;;;16.00;99.90;;;;;;5018244;28;19935;-75
2023/05/09 05:05:08;;;;;;;;;;;16.00;99.90;;;;;;5011784;28;19960;-76
2023/05/09 05:07:37;;;;;;;;;;;16.00;99.90;;;;;;5011553;28;19933;-75
2023/05/09 05:10:05;;;;;;;;;;;16.10;99.90;;;;;;5010795;28;19960;-76
2023/05/09 05:12:32;;;;;;;;;;;16.10;99.90;;;;;;5030313;28;19929;-77
2023/05/09 05:15:00;;;;;;;;;;;16.10;99.90;;;;;;5027527;28;19936;-76
2023/05/09 05:17:28;;;;;;;;;;;16.10;99.90;;;;;;5025518;28;19964;-76
2023/05/09 05:19:55;;;;;;;;;;;16.20;99.90;;;;;;5027027;28;19925;-76
2023/05/09 05:22:23;;;;;;;;;;;16.20;99.90;;;;;;5021547;28;19951;-76
2023/05/09 05:24:49;;;;;;;;;;;16.30;99.90;;;;;;5018662;28;19929;-76
2023/05/09 05:27:16;;;;;;;;;;;16.30;99.90;;;;;;5027118;28;20099;-76
2023/05/09 05:32:20;;;;;;;;;;;16.50;99.90;;;;;;5041207;28;19926;-81
2023/05/09 05:34:47;;;;;;;;;;;16.60;99.90;;;;;;5026165;28;19925;-81
2023/05/09 05:37:14;;;;;;;;;;;16.60;99.90;;;;;;5046335;28;19932;-81
2023/05/09 05:39:42;;;;;;;;;;;16.70;99.90;;;;;;5065418;28;19931;-81
2023/05/09 05:42:09;;;;;;;;;;;16.80;99.90;;;;;;5047944;28;19991;-82
2023/05/09 05:44:37;;;;;;;;;;;17.40;99.90;;;;;;5071375;28;20068;-82
2023/05/09 05:47:05;;;;;;;;;;;17.40;99.90;;;;;;5081176;28;19936;-82
2023/05/09 05:49:33;;;;;;;;;;;17.90;99.90;;;;;;5064769;28;19988;-82
2023/05/09 05:52:00;;;;;;;;;;;18.30;99.90;;;;;;5045730;28;19952;-82
2023/05/09 05:54:27;;;;;;;;;;;18.80;99.90;;;;;;5077876;28;19929;-82
2023/05/09 05:56:57;;;;;;;;;;;19.00;99.90;;;;;;5045386;28;20077;-82
2023/05/09 05:59:25;;;;;;;;;;;19.10;99.90;;;;;;5044123;28;19952;-82
2023/05/09 06:01:52;;;;;;;;;;;19.40;99.90;;;;;;5079034;28;19960;-82
2023/05/09 06:04:19;;;;;;;;;;;19.90;99.90;;;;;;5045435;28;19994;-83
2023/05/09 06:06:48;;;;;;;;;;;20.70;99.90;;;;;;5042773;28;20004;-83
2023/05/09 06:09:15;;;;;;;;;;;21.10;99.90;;;;;;5026790;28;19955;-83
2023/05/09 06:11:42;;;;;;;;;;;23.10;99.90;;;;;;5025036;28;19933;-81
2023/05/09 06:14:09;;;;;;;;;;;21.90;99.90;;;;;;5045479;28;19973;-83
2023/05/09 06:16:36;;;;;;;;;;;21.80;99.90;;;;;;5048960;28;19995;-83
2023/05/09 06:19:03;;;;;;;;;;;21.60;99.90;;;;;;5063362;28;19956;-83
2023/05/09 06:21:30;;;;;;;;;;;21.30;99.90;;;;;;5045192;28;19925;-83
2023/05/09 06:23:59;;;;;;;;;;;21.10;99.90;;;;;;5043914;28;19935;-79
2023/05/09 06:26:26;;;;;;;;;;;21.10;99.90;;;;;;5040713;28;19939;-78
2023/05/09 06:28:53;;;;;;;;;;;21.20;99.90;;;;;;5042059;28;19924;-82
2023/05/09 06:31:19;;;;;;;;;;;21.30;99.90;;;;;;5057993;28;20012;-82
2023/05/09 06:33:46;;;;;;;;;;;21.30;99.90;;;;;;5044599;28;19912;-82
2023/05/09 06:36:13;;;;;;;;;;;21.10;99.90;;;;;;5046142;28;19928;-82
2023/05/09 06:38:40;;;;;;;;;;;21.50;99.90;;;;;;5078777;28;19970;-82
2023/05/09 06:41:09;;;;;;;;;;;21.70;99.90;;;;;;5045834;28;19978;-82
2023/05/09 06:43:35;;;;;;;;;;;22.60;99.90;;;;;;5045629;28;20312;-81
2023/05/09 06:46:03;;;;;;;;;;;23.80;99.90;;;;;;5065920;28;20039;-82
2023/05/09 06:48:30;;;;;;;;;;;24.10;99.90;;;;;;5045400;28;19936;-83
2023/05/09 06:50:57;;;;;;;;;;;24.10;99.90;;;;;;5062621;28;19940;-82
2023/05/09 06:53:24;;;;;;;;;;;23.70;99.90;;;;;;5044653;28;20374;-82
2023/05/09 06:55:51;;;;;;;;;;;23.30;99.90;;;;;;5045419;28;19992;-82
2023/05/09 06:58:20;;;;;;;;;;;23.20;99.90;;;;;;5043853;28;20121;-83
2023/05/09 07:00:47;;;;;;;;;;;23.20;99.90;;;;;;5035649;28;20120;-83
2023/05/09 07:03:14;;;;;;;;;;;23.30;99.90;;;;;;5029225;28;20020;-83
2023/05/09 07:05:41;;;;;;;;;;;23.40;99.90;;;;;;5063534;28;19925;-82
2023/05/09 07:08:08;;;;;;;;;;;24.00;99.90;;;;;;5063573;28;19936;-83
2023/05/09 07:10:35;;;;;;;;;;;24.80;99.90;;;;;;5046249;28;19928;-82
2023/05/09 07:13:03;;;;;;;;;;;25.60;99.90;;;;;;5047818;28;19933;-83
2023/05/09 07:15:31;;;;;;;;;;;25.90;99.90;;;;;;5057348;28;19925;-82
2023/05/09 07:17:58;;;;;;;;;;;25.90;99.90;;;;;;5044838;28;19955;-83
2023/05/09 07:20:25;;;;;;;;;;;26.10;99.90;;;;;;5045693;28;20530;-82
2023/05/09 07:22:52;;;;;;;;;;;25.60;99.90;;;;;;5035606;28;19929;-82
2023/05/09 07:25:19;;;;;;;;;;;26.60;99.90;;;;;;5030622;28;20027;-82
2023/05/09 07:27:46;;;;;;;;;;;25.70;99.90;;;;;;5044772;28;19929;-82
2023/05/09 07:30:14;;;;;;;;;;;25.30;99.90;;;;;;5071287;28;19936;-82
2023/05/09 07:32:43;;;;;;;;;;;24.80;99.90;;;;;;5043902;28;19931;-82
2023/05/09 07:35:11;;;;;;;;;;;24.30;99.90;;;;;;5036680;28;19959;-82
2023/05/09 07:37:38;;;;;;;;;;;24.20;99.90;;;;;;5025424;28;20277;-82
2023/05/09 07:40:06;;;;;;;;;;;23.40;99.90;;;;;;5025269;28;20043;-82
2023/05/09 07:42:33;;;;;;;;;;;23.50;99.90;;;;;;5037166;28;19972;-81
2023/05/09 07:45:00;;;;;;;;;;;23.40;99.90;;;;;;5083278;28;19947;-82
2023/05/09 07:47:27;;;;;;;;;;;22.20;99.90;;;;;;5101576;28;19929;-82
2023/05/09 07:49:55;;;;;;;;;;;23.50;99.90;;;;;;5063282;28;19943;-81
2023/05/09 07:52:22;;;;;;;;;;;23.70;99.90;;;;;;5066303;28;20265;-82
2023/05/09 07:54:49;;;;;;;;;;;23.70;99.90;;;;;;5066021;28;19929;-82
2023/05/09 07:57:16;;;;;;;;;;;23.70;99.90;;;;;;5080848;28;19929;-82
2023/05/09 07:59:43;;;;;;;;;;;23.90;99.90;;;;;;5044047;28;19961;-83
2023/05/09 08:02:10;;;;;;;;;;;23.70;99.90;;;;;;5059224;22;19928;-82
2023/05/09 08:04:39;;;;;;;;;;;23.70;99.90;;;;;;5053523;28;20311;-78
2023/05/09 08:07:07;;;;;;;;;;;24.10;99.90;;;;;;5049139;28;19964;-78
2023/05/09 08:09:34;;;;;;;;;;;25.60;99.90;;;;;;5055138;28;19936;-78
2023/05/09 08:12:01;;;;;;;;;;;26.00;99.90;;;;;;5069499;28;19981;-78
2023/05/09 08:14:28;;;;;;;;;;;27.70;99.90;;;;;;5070170;28;19928;-77
2023/05/09 08:16:55;;;;;;;;;;;27.70;99.90;;;;;;5072699;28;20338;-78
2023/05/09 08:19:24;;;;;;;;;;;28.50;99.90;;;;;;5068676;28;20365;-78
2023/05/09 08:21:51;;;;;;;;;;;28.50;99.90;;;;;;5063610;28;20384;-79
2023/05/09 08:24:19;;;;;;;;;;;28.50;99.90;;;;;;5064770;28;20701;-79
2023/05/09 08:26:46;;;;;;;;;;;28.70;99.90;;;;;;5049270;28;19935;-79
2023/05/09 08:29:13;;;;;;;;;;;29.60;99.90;;;;;;5051749;28;19971;-80
2023/05/09 08:31:40;;;;;;;;;;;29.60;99.90;;;;;;5049941;28;19928;-77
2023/05/09 08:34:07;;;;;;;;;;;29.70;99.90;;;;;;5050048;28;19924;-78
2023/05/09 08:36:33;;;;;;;;;;;30.10;99.90;;;;;;5051000;28;19928;-78
2023/05/09 08:39:00;;;;;;;;;;;30.20;99.90;;;;;;5047175;28;19932;-78
2023/05/09 08:41:29;;;;;;;;;;;30.20;99.90;;;;;;5066694;28;19924;-79
2023/05/09 08:43:56;;;;;;;;;;;29.40;99.90;;;;;;5070449;28;19982;-81
2023/05/09 08:46:27;;;;;;;;;;;28.60;99.90;;;;;;5063203;28;19998;-80
2023/05/09 08:48:55;;;;;;;;;;;27.60;99.90;;;;;;5071858;28;19932;-79
2023/05/09 08:51:22;;;;;;;;;;;27.30;99.90;;;;;;5079017;28;19915;-80
2023/05/09 08:53:49;;;;;;;;;;;27.30;99.90;;;;;;5091644;28;19928;-81
2023/05/09 08:56:16;;;;;;;;;;;27.10;99.90;;;;;;5087362;28;19928;-79
2023/05/09 08:58:44;;;;;;;;;;;27.30;99.90;;;;;;5070839;28;19928;-77
2023/05/09 09:01:12;;;;;;;;;;;27.40;99.90;;;;;;5071793;28;19936;-77
2023/05/09 09:03:44;;;;;;;;;;;27.60;99.90;;;;;;5079999;28;19913;-77
2023/05/09 09:06:11;;;;;;;;;;;28.00;99.90;;;;;;5055495;28;19924;-77
2023/05/09 09:08:38;;;;;;;;;;;28.50;99.90;;;;;;5069728;28;19928;-77
2023/05/09 09:11:06;;;;;;;;;;;29.00;99.90;;;;;;5070688;28;19932;-77
2023/05/09 09:13:37;;;;;;;;;;;29.30;99.90;;;;;;5070266;28;19972;-77
2023/05/09 09:16:06;;;;;;;;;;;29.90;99.90;;;;;;5061308;28;19986;-77
2023/05/09 09:18:33;;;;;;;;;;;30.00;99.90;;;;;;5071705;28;20385;-77
2023/05/09 09:21:04;;;;;;;;;;;29.80;99.90;;;;;;5057921;28;19929;-77
2023/05/09 09:23:32;;;;;;;;;;;29.50;99.90;;;;;;5075560;28;19973;-77
2023/05/09 09:25:59;;;;;;;;;;;29.00;99.90;;;;;;5079165;28;19935;-76
2023/05/09 09:28:26;;;;;;;;;;;28.60;99.90;;;;;;5088884;28;19935;-77
2023/05/09 09:30:53;;;;;;;;;;;28.10;99.90;;;;;;5088594;28;19935;-78
2023/05/09 09:33:21;;;;;;;;;;;28.00;99.90;;;;;;5078944;28;20032;-75
2023/05/09 09:35:49;;;;;;;;;;;27.80;99.90;;;;;;5062411;28;19928;-76
2023/05/09 09:38:16;;;;;;;;;;;27.40;99.90;;;;;;5074623;28;20703;-77
2023/05/09 09:40:48;;;;;;;;;;;27.40;99.90;;;;;;5088325;28;19928;-76
2023/05/09 09:43:15;;;;;;;;;;;27.30;99.90;;;;;;5081762;28;19928;-77
2023/05/09 09:45:41;;;;;;;;;;;27.20;99.90;;;;;;5059937;28;20413;-77
2023/05/09 09:48:08;;;;;;;;;;;27.10;99.90;;;;;;5066892;28;19929;-76
2023/05/09 09:50:36;;;;;;;;;;;27.10;99.90;;;;;;5068224;28;19928;-77
2023/05/09 09:53:03;;;;;;;;;;;27.00;99.90;;;;;;5057117;28;19929;-78
2023/05/09 09:55:31;;;;;;;;;;;27.10;99.90;;;;;;5064220;28;20371;-77
2023/05/09 09:57:58;;;;;;;;;;;27.20;99.90;;;;;;5084311;28;19931;-77
2023/05/09 10:00:26;;;;;;;;;;;27.50;99.90;;;;;;5075286;28;20015;-77
2023/05/09 10:02:55;;;;;;;;;;;27.70;99.90;;;;;;5049361;28;20306;-77
2023/05/09 10:05:23;;;;;;;;;;;28.00;99.90;;;;;;5064710;28;19938;-77
2023/05/09 10:07:53;;;;;;;;;;;28.20;99.90;;;;;;5069923;28;19940;-77
2023/05/09 10:10:20;;;;;;;;;;;28.00;99.90;;;;;;5073808;28;19932;-77
2023/05/09 10:12:47;;;;;;;;;;;27.80;99.90;;;;;;5084361;28;19928;-79
2023/05/09 10:15:17;;;;;;;;;;;27.50;99.90;;;;;;5065069;28;19983;-78
2023/05/09 10:17:44;;;;;;;;;;;27.30;99.90;;;;;;5060139;28;19924;-79
2023/05/09 10:20:12;;;;;;;;;;;27.10;99.90;;;;;;5062592;28;19961;-80
2023/05/09 10:22:39;;;;;;;;;;;27.10;99.90;;;;;;5077246;28;19924;-80
2023/05/09 10:25:11;;;;;;;;;;;27.00;99.90;;;;;;5094098;28;19933;-79
2023/05/09 10:27:39;;;;;;;;;;;26.80;99.90;;;;;;5068528;28;19925;-79
2023/05/09 10:30:09;;;;;;;;;;;26.40;99.90;;;;;;5067715;28;20432;-79
2023/05/09 10:32:41;;;;;;;;;;;26.40;99.90;;;;;;5067376;28;20110;-78
2023/05/09 10:35:10;;;;;;;;;;;26.30;99.90;;;;;;5068927;28;19929;-78
2023/05/09 10:37:37;;;;;;;;;;;26.20;99.90;;;;;;5068714;28;19936;-78
2023/05/09 10:40:04;;;;;;;;;;;26.30;99.90;;;;;;5065295;28;19932;-79
2023/05/09 10:42:32;;;;;;;;;;;26.40;99.90;;;;;;5047750;28;19929;-80
2023/05/09 10:44:59;;;;;;;;;;;26.50;99.90;;;;;;5053100;28;19925;-79
2023/05/09 10:47:26;;;;;;;;;;;26.50;99.90;;;;;;5057231;28;19936;-78
2023/05/09 10:49:53;;;;;;;;;;;26.80;99.90;;;;;;5066995;28;20014;-78
2023/05/09 10:52:21;;;;;;;;;;;26.80;99.90;;;;;;5056000;28;19928;-78
2023/05/09 10:54:57;;;;;;;;;;;27.20;99.90;;;;;;5048817;28;20036;-81
2023/05/09 10:57:24;;;;;;;;;;;27.40;99.90;;;;;;5052394;28;19937;-78
2023/05/09 10:59:52;;;;;;;;;;;27.60;99.90;;;;;;5063405;28;19986;-78
2023/05/09 11:02:20;;;;;;;;;;;27.70;99.90;;;;;;5074943;28;19988;-78
2023/05/09 11:04:46;;;;;;;;;;;27.80;99.90;;;;;;5066481;28;20023;-78
2023/05/09 11:07:23;;;;;;;;;;;27.70;99.90;;;;;;5048760;28;19929;-78
2023/05/09 11:09:51;;;;;;;;;;;27.60;99.90;;;;;;5046991;28;19929;-78
2023/05/09 11:12:19;;;;;;;;;;;27.60;99.90;;;;;;5068444;28;19932;-77
2023/05/09 11:14:47;;;;;;;;;;;27.50;99.90;;;;;;5063619;28;20019;-78
2023/05/09 11:17:27;;;;;;;;;;;27.40;99.90;;;;;;5052124;28;19935;-78
2023/05/09 11:19:58;;;;;;;;;;;27.40;99.90;;;;;;5061224;28;19942;-78
2023/05/09 11:22:26;;;;;;;;;;;27.50;99.90;;;;;;5088599;28;19959;-77
2023/05/09 11:25:00;;;;;;;;;;;27.70;99.90;;;;;;5092477;28;19924;-78
2023/05/09 11:27:27;;;;;;;;;;;28.10;99.90;;;;;;5083901;28;20512;-78
2023/05/09 11:29:55;;;;;;;;;;;28.00;99.90;;;;;;5050734;28;19936;-78
2023/05/09 11:32:27;;;;;;;;;;;28.50;99.90;;;;;;5053519;28;19932;-77
2023/05/09 11:35:05;;;;;;;;;;;28.60;99.90;;;;;;5071824;28;20304;-78
2023/05/09 11:37:32;;;;;;;;;;;28.70;99.90;;;;;;5070863;28;19928;-77
2023/05/09 11:40:00;;;;;;;;;;;28.70;99.90;;;;;;5069267;28;20411;-78
2023/05/09 11:42:27;;;;;;;;;;;28.80;99.90;;;;;;5071152;28;20364;-77
2023/05/09 11:44:55;;;;;;;;;;;28.90;99.90;;;;;;5083674;28;19929;-77
2023/05/09 11:47:23;;;;;;;;;;;29.70;99.90;;;;;;5089343;28;19920;-78
2023/05/09 11:49:50;;;;;;;;;;;28.70;99.90;;;;;;5075563;28;19924;-78
2023/05/09 11:52:18;;;;;;;;;;;28.70;99.90;;;;;;5061532;28;19997;-77
2023/05/09 11:54:45;;;;;;;;;;;28.80;99.90;;;;;;5068998;28;19929;-78
2023/05/09 11:57:16;;;;;;;;;;;28.80;99.90;;;;;;5081216;28;20603;-77
2023/05/09 11:59:43;;;;;;;;;;;28.60;99.90;;;;;;5074875;28;20124;-77
2023/05/09 12:02:10;;;;;;;;;;;28.60;99.90;;;;;;5070679;28;20010;-77
2023/05/09 12:04:38;;;;;;;;;;;28.60;99.90;;;;;;5089917;28;19936;-78
2023/05/09 12:07:05;;;;;;;;;;;28.50;99.90;;;;;;5078485;28;19967;-77
2023/05/09 12:12:16;;;;;;;;;;;26.60;99.70;;;;;;5154874;22;20371;-77
2023/05/09 12:14:43;;;;;;;;;;;28.30;99.90;;;;;;5052269;28;19955;-77
2023/05/09 12:17:10;;;;;;;;;;;28.10;99.90;;;;;;5066228;28;19942;-77
2023/05/09 12:19:38;;;;;;;;;;;27.70;99.90;;;;;;5069152;28;20294;-76
2023/05/09 12:22:05;;;;;;;;;;;27.80;99.90;;;;;;5070130;28;19924;-77
2023/05/09 12:24:34;;;;;;;;;;;27.80;99.90;;;;;;5070855;28;19933;-76
2023/05/09 12:27:01;;;;;;;;;;;27.70;99.90;;;;;;5074989;28;19939;-79
2023/05/09 12:29:29;;;;;;;;;;;27.50;99.90;;;;;;5074254;28;20274;-78
2023/05/09 12:31:56;;;;;;;;;;;27.50;99.90;;;;;;5073624;28;20279;-78
2023/05/09 12:34:23;;;;;;;;;;;27.50;99.80;;;;;;5047340;28;19926;-78
2023/05/09 12:36:51;;;;;;;;;;;27.40;99.70;;;;;;5047708;28;19929;-79
2023/05/09 12:39:20;;;;;;;;;;;27.40;99.10;;;;;;5049292;28;19928;-80
2023/05/09 12:41:47;;;;;;;;;;;27.40;99.40;;;;;;5058913;28;20336;-78
2023/05/09 12:44:21;;;;;;;;;;;27.50;99.90;;;;;;5058494;28;19936;-79
2023/05/09 12:46:57;;;;;;;;;;;27.80;99.60;;;;;;5067188;28;20015;-78
2023/05/09 12:49:24;;;;;;;;;;;27.50;98.90;;;;;;5055988;28;19940;-79
2023/05/09 12:51:53;;;;;;;;;;;27.50;99.40;;;;;;5063836;28;19932;-80
2023/05/09 12:54:21;;;;;;;;;;;27.20;99.50;;;;;;5049800;28;19964;-79
2023/05/09 12:56:48;;;;;;;;;;;27.00;99.60;;;;;;5048498;28;19959;-78
2023/05/09 12:59:19;;;;;;;;;;;26.30;99.80;;;;;;5047055;28;19964;-78
2023/05/09 13:01:51;;;;;;;;;;;26.20;99.90;;;;;;5050051;28;20394;-80
2023/05/09 13:04:19;;;;;;;;;;;25.80;99.90;;;;;;5057735;28;19968;-78
2023/05/09 13:06:49;;;;;;;;;;;24.90;99.90;;;;;;5058584;28;19992;-79
2023/05/09 13:09:19;;;;;;;;;;;23.50;99.90;;;;;;5071751;28;19919;-81
2023/05/09 13:11:46;;;;;;;;;;;23.40;99.90;;;;;;5065542;28;19925;-78
2023/05/09 13:14:13;;;;;;;;;;;22.80;99.90;;;;;;5052278;28;19931;-79
2023/05/09 13:16:40;;;;;;;;;;;22.30;99.90;;;;;;5062160;28;20055;-79
2023/05/09 13:19:07;;;;;;;;;;;21.20;99.90;;;;;;5068909;28;19968;-78
2023/05/09 13:21:34;;;;;;;;;;;21.10;99.90;;;;;;5070115;28;20274;-76
2023/05/09 13:24:01;;;;;;;;;;;20.70;99.90;;;;;;5049338;28;19925;-76
2023/05/09 13:26:29;;;;;;;;;;;20.40;99.90;;;;;;5049145;28;19929;-76
2023/05/09 13:28:56;;;;;;;;;;;20.20;99.90;;;;;;5047216;28;20337;-77
2023/05/09 13:31:23;;;;;;;;;;;20.20;99.90;;;;;;5048667;28;19933;-76
2023/05/09 13:33:50;;;;;;;;;;;20.30;99.90;;;;;;5049258;28;19925;-77
2023/05/09 13:36:16;;;;;;;;;;;20.60;99.90;;;;;;5047896;28;19929;-77
2023/05/09 13:38:44;;;;;;;;;;;20.80;99.90;;;;;;5048222;28;19986;-77
2023/05/09 13:41:11;;;;;;;;;;;20.90;99.90;;;;;;5056479;28;20044;-76
2023/05/09 13:43:41;;;;;;;;;;;21.00;99.90;;;;;;5062004;28;19931;-76
2023/05/09 13:46:07;;;;;;;;;;;21.10;99.90;;;;;;5059903;28;20401;-76
2023/05/09 13:48:34;;;;;;;;;;;21.10;99.90;;;;;;5057971;28;19928;-76
2023/05/09 13:51:01;;;;;;;;;;;20.40;99.90;;;;;;5048268;28;19929;-76
2023/05/09 13:53:28;;;;;;;;;;;21.10;99.90;;;;;;5047758;28;19928;-76
2023/05/09 13:55:54;;;;;;;;;;;21.00;99.90;;;;;;5047356;28;19925;-76
2023/05/09 13:58:21;;;;;;;;;;;21.00;99.90;;;;;;5047545;28;20369;-76
2023/05/09 14:00:50;;;;;;;;;;;21.00;99.90;;;;;;5062681;28;19940;-77
2023/05/09 14:03:17;;;;;;;;;;;20.90;99.90;;;;;;5047151;28;20043;-77
2023/05/09 14:05:43;;;;;;;;;;;20.80;99.90;;;;;;5047443;28;20027;-76
2023/05/09 14:08:10;;;;;;;;;;;20.70;99.90;;;;;;5046685;28;19989;-77
2023/05/09 14:10:37;;;;;;;;;;;20.70;99.90;;;;;;5054890;28;19929;-75
2023/05/09 14:13:03;;;;;;;;;;;20.70;99.90;;;;;;5057483;28;19929;-76
2023/05/09 14:15:30;;;;;;;;;;;20.80;99.90;;;;;;5059062;28;20362;-76
2023/05/09 14:17:58;;;;;;;;;;;20.80;99.90;;;;;;5068064;28;19924;-77
2023/05/09 14:20:25;;;;;;;;;;;20.60;99.90;;;;;;5066424;28;19936;-77
2023/05/09 14:22:53;;;;;;;;;;;20.40;99.90;;;;;;5067450;28;20006;-77
2023/05/09 14:25:21;;;;;;;;;;;20.50;99.90;;;;;;5070998;28;19968;-77